Time;durP1;ratioP1;P1;durP2;ratioP2;P2;SDS_P1;SDS_P2;PMS_P1;PMS_P2;Temp;Humidity;BMP_temperature;BMP_pressure;BME280_temperature;BME280_humidity;BME280_pressure;Samples;Min_cycle;Max_cycle;Signal;HPM_P1;HPM_P2
2023/06/06 00:01:41;;;;;;;7.70;6.47;;;10.80;99.90;;;;;;6210002;23;20017;-39
2023/06/06 00:04:07;;;;;;;11.80;6.75;;;10.70;99.90;;;;;;6210187;23;20024;-39
2023/06/06 00:06:33;;;;;;;10.50;7.70;;;10.70;99.90;;;;;;6210199;23;20013;-39
2023/06/06 00:09:05;;;;;;;12.77;8.13;;;10.70;99.90;;;;;;6183504;23;20298;-40
2023/06/06 00:11:31;;;;;;;11.60;7.35;;;10.70;99.90;;;;;;6212345;23;20035;-40
2023/06/06 00:13:56;;;;;;;11.57;7.47;;;10.70;99.90;;;;;;6211460;23;20464;-39
2023/06/06 00:16:23;;;;;;;8.88;7.80;;;10.60;99.90;;;;;;6212069;23;20019;-40
2023/06/06 00:18:52;;;;;;;11.23;7.70;;;10.60;99.90;;;;;;6184355;23;20013;-39
2023/06/06 00:21:19;;;;;;;10.88;7.97;;;10.60;99.90;;;;;;6210579;23;20087;-40
2023/06/06 00:23:47;;;;;;;8.48;6.80;;;10.60;99.90;;;;;;6212223;23;20059;-39
2023/06/06 00:26:13;;;;;;;10.75;7.57;;;10.60;99.90;;;;;;6213682;23;20019;-40
2023/06/06 00:28:39;;;;;;;9.73;7.40;;;10.60;99.90;;;;;;6211966;23;20345;-41
2023/06/06 00:31:05;;;;;;;12.50;7.97;;;10.50;99.90;;;;;;6213363;23;20017;-41
2023/06/06 00:33:30;;;;;;;9.50;7.07;;;10.50;99.90;;;;;;6186310;23;20023;-40
2023/06/06 00:35:56;;;;;;;8.38;7.10;;;10.50;99.90;;;;;;6213181;23;20021;-39
2023/06/06 00:38:21;;;;;;;11.32;7.35;;;10.50;99.90;;;;;;6213744;23;20016;-39
2023/06/06 00:40:49;;;;;;;10.98;7.88;;;10.50;99.90;;;;;;6213637;23;20353;-41
2023/06/06 00:43:14;;;;;;;9.70;7.70;;;10.50;99.90;;;;;;6213608;23;20012;-39
2023/06/06 00:45:40;;;;;;;13.63;8.98;;;10.50;99.90;;;;;;6213718;23;20244;-39
2023/06/06 00:48:06;;;;;;;11.57;8.45;;;10.40;99.90;;;;;;6211221;23;20012;-39
2023/06/06 00:50:34;;;;;;;12.15;8.55;;;10.40;99.90;;;;;;6212602;23;20019;-39
2023/06/06 00:53:00;;;;;;;11.60;8.68;;;10.40;99.90;;;;;;6209298;23;20044;-39
2023/06/06 00:55:26;;;;;;;11.18;8.77;;;10.40;99.90;;;;;;6182492;23;20345;-39
2023/06/06 00:57:52;;;;;;;13.95;9.02;;;10.40;99.90;;;;;;6185228;23;20092;-40
2023/06/06 01:00:18;;;;;;;10.52;9.18;;;10.40;99.90;;;;;;6186400;23;20019;-41
2023/06/06 01:02:47;;;;;;;11.98;8.90;;;10.40;99.90;;;;;;6208786;23;20020;-39
2023/06/06 01:05:15;;;;;;;11.80;8.98;;;10.40;99.90;;;;;;6182797;23;20024;-39
2023/06/06 01:07:43;;;;;;;11.18;8.60;;;10.40;99.90;;;;;;6209783;23;20031;-39
2023/06/06 01:10:09;;;;;;;10.93;8.48;;;10.40;99.90;;;;;;6212756;23;20038;-40
2023/06/06 01:12:59;;;;;;;14.88;8.60;;;10.30;99.90;;;;;;6210476;23;20021;-40
2023/06/06 01:15:57;;;;;;;13.02;8.95;;;10.30;99.90;;;;;;6189945;23;20318;-40
2023/06/06 01:18:23;;;;;;;13.50;8.70;;;10.30;99.90;;;;;;6210045;23;20028;-40
2023/06/06 01:20:49;;;;;;;14.48;7.25;;;10.30;99.90;;;;;;6208999;23;20024;-39
2023/06/06 01:23:16;;;;;;;13.38;8.95;;;10.30;99.90;;;;;;6183132;23;20063;-39
2023/06/06 01:25:45;;;;;;;10.75;8.73;;;10.30;99.90;;;;;;6209264;23;20071;-41
2023/06/06 01:28:13;;;;;;;13.00;8.85;;;10.20;99.90;;;;;;6209349;23;20024;-43
2023/06/06 01:30:41;;;;;;;13.18;8.45;;;10.20;99.90;;;;;;6211032;23;20025;-39
2023/06/06 01:33:18;;;;;;;;;;;10.20;99.90;;;;;;6213569;23;20020;-40
2023/06/06 01:36:14;;;;;;;12.43;8.47;;;10.20;99.90;;;;;;6213419;23;19923;-41
2023/06/06 01:38:58;;;;;;;11.63;8.77;;;10.20;99.90;;;;;;6213245;23;20028;-42
2023/06/06 01:41:25;;;;;;;12.07;7.90;;;10.10;99.90;;;;;;6213380;23;20032;-39
2023/06/06 01:43:53;;;;;;;11.70;8.45;;;10.10;99.90;;;;;;6211229;23;20023;-39
2023/06/06 01:46:20;;;;;;;10.55;8.23;;;10.10;99.90;;;;;;6182884;23;20013;-39
2023/06/06 01:48:46;;;;;;;10.97;8.73;;;10.10;99.90;;;;;;6211257;23;20016;-41
2023/06/06 01:51:12;;;;;;;10.93;7.63;;;10.00;99.90;;;;;;6158028;23;20742;-39
2023/06/06 01:53:38;;;;;;;13.85;9.15;;;10.00;99.90;;;;;;6209849;23;20021;-39
2023/06/06 01:56:04;;;;;;;12.82;9.82;;;10.00;99.90;;;;;;6210260;23;20100;-41
2023/06/06 01:58:29;;;;;;;11.18;9.68;;;10.00;99.90;;;;;;6210213;23;20452;-41
2023/06/06 02:00:55;;;;;;;15.18;8.88;;;10.00;99.90;;;;;;6208603;23;20151;-39
2023/06/06 02:03:20;;;;;;;12.60;8.25;;;10.00;99.90;;;;;;6207384;23;20032;-39
2023/06/06 02:05:46;;;;;;;11.95;8.90;;;10.00;99.90;;;;;;6211902;23;20084;-39
2023/06/06 02:08:12;;;;;;;17.05;9.23;;;10.00;99.90;;;;;;6186214;23;20331;-39
2023/06/06 02:10:38;;;;;;;15.05;9.00;;;9.90;99.90;;;;;;6184432;23;20016;-40
2023/06/06 02:13:04;;;;;;;11.00;8.65;;;9.90;99.90;;;;;;6186856;23;20118;-39
2023/06/06 02:15:30;;;;;;;16.75;9.15;;;9.90;99.90;;;;;;6184278;23;20056;-39
2023/06/06 02:17:55;;;;;;;13.18;8.82;;;9.90;99.90;;;;;;6210954;23;20020;-40
2023/06/06 02:20:21;;;;;;;11.25;8.30;;;9.90;99.90;;;;;;6210672;23;20024;-41
2023/06/06 02:22:47;;;;;;;11.93;8.30;;;9.90;99.90;;;;;;6211683;23;20044;-39
2023/06/06 02:25:13;;;;;;;11.88;8.38;;;9.90;99.90;;;;;;6212444;23;20016;-39
2023/06/06 02:27:38;;;;;;;14.13;8.95;;;9.80;99.90;;;;;;6210558;23;20020;-39
2023/06/06 02:30:08;;;;;;;11.82;8.43;;;9.80;99.90;;;;;;6211313;23;20013;-39
2023/06/06 02:32:34;;;;;;;11.07;8.88;;;9.80;99.90;;;;;;6211524;23;20091;-42
2023/06/06 02:35:01;;;;;;;10.52;8.23;;;9.80;99.90;;;;;;6210681;23;20063;-39
2023/06/06 02:37:30;;;;;;;14.52;9.45;;;9.80;99.90;;;;;;6209927;23;20757;-39
2023/06/06 02:39:56;;;;;;;13.60;7.80;;;9.80;99.90;;;;;;6212922;23;20012;-39
2023/06/06 02:42:21;;;;;;;13.77;9.75;;;9.80;99.90;;;;;;6210882;23;20020;-40
2023/06/06 02:44:47;;;;;;;16.05;11.93;;;9.80;99.90;;;;;;6211945;23;20092;-39
2023/06/06 02:47:13;;;;;;;13.93;12.15;;;9.80;99.90;;;;;;6212501;23;20091;-39
2023/06/06 02:49:39;;;;;;;15.57;12.15;;;9.70;99.90;;;;;;6162313;23;20024;-39
2023/06/06 02:52:06;;;;;;;14.10;11.35;;;9.70;99.90;;;;;;6213301;23;20430;-41
2023/06/06 02:54:32;;;;;;;14.37;10.63;;;9.70;99.90;;;;;;6215984;23;20017;-41
2023/06/06 02:56:58;;;;;;;12.73;9.98;;;9.70;99.90;;;;;;6213491;23;20020;-39
2023/06/06 02:59:24;;;;;;;17.05;10.73;;;9.70;99.90;;;;;;6215002;23;20012;-39
2023/06/06 03:01:49;;;;;;;16.15;10.18;;;9.70;99.90;;;;;;6161608;23;20417;-40
2023/06/06 03:04:15;;;;;;;14.57;10.38;;;9.70;99.90;;;;;;6213709;23;20020;-41
2023/06/06 03:06:41;;;;;;;15.85;10.25;;;9.70;99.90;;;;;;6212144;23;20092;-39
2023/06/06 03:09:08;;;;;;;17.38;10.82;;;9.70;99.90;;;;;;6187219;23;20058;-41
2023/06/06 03:11:34;;;;;;;13.00;9.57;;;9.70;99.90;;;;;;6209101;23;20055;-39
2023/06/06 03:14:00;;;;;;;15.25;11.63;;;9.70;99.90;;;;;;6211086;23;20115;-39
2023/06/06 03:16:26;;;;;;;16.58;11.70;;;9.70;99.90;;;;;;6212677;23;20012;-39
2023/06/06 03:18:55;;;;;;;19.90;12.15;;;9.70;99.90;;;;;;6212590;23;20012;-39
2023/06/06 03:21:20;;;;;;;20.02;11.52;;;9.70;99.90;;;;;;6186311;23;20025;-39
2023/06/06 03:23:47;;;;;;;15.32;10.73;;;9.70;99.90;;;;;;6212872;23;20019;-39
2023/06/06 03:26:13;;;;;;;15.25;11.48;;;9.70;99.90;;;;;;6186867;23;20083;-39
2023/06/06 03:28:39;;;;;;;15.82;12.48;;;9.70;99.90;;;;;;6186365;23;20020;-40
2023/06/06 03:31:06;;;;;;;18.58;11.93;;;9.80;99.90;;;;;;6214808;23;20135;-40
2023/06/06 03:33:32;;;;;;;19.38;13.05;;;9.80;99.90;;;;;;6213461;23;20464;-39
2023/06/06 03:35:58;;;;;;;12.35;9.35;;;9.80;99.90;;;;;;6213121;23;20441;-39
2023/06/06 03:38:24;;;;;;;16.67;12.50;;;9.80;99.90;;;;;;6210867;23;20063;-39
2023/06/06 03:40:50;;;;;;;18.98;12.32;;;9.80;99.90;;;;;;6189244;23;20020;-40
2023/06/06 03:43:15;;;;;;;19.98;11.05;;;9.80;99.90;;;;;;6212048;23;20024;-39
2023/06/06 03:45:41;;;;;;;18.60;12.50;;;9.80;99.90;;;;;;6213507;23;20017;-39
2023/06/06 03:48:09;;;;;;;19.20;13.35;;;9.90;99.90;;;;;;6185697;23;20019;-39
2023/06/06 03:50:35;;;;;;;20.27;13.95;;;9.90;99.90;;;;;;6186777;23;20016;-39
2023/06/06 03:53:01;;;;;;;18.67;12.20;;;9.90;99.90;;;;;;6211777;23;20023;-40
2023/06/06 03:55:26;;;;;;;17.75;12.45;;;9.90;99.90;;;;;;6212522;23;20008;-43
2023/06/06 03:57:53;;;;;;;18.27;12.80;;;10.00;99.90;;;;;;6216400;23;20452;-39
2023/06/06 04:00:19;;;;;;;20.35;12.18;;;10.10;99.90;;;;;;6189850;23;20017;-39
2023/06/06 04:02:48;;;;;;;19.50;13.07;;;10.10;99.90;;;;;;6210668;23;20032;-41
2023/06/06 04:05:14;;;;;;;19.48;11.90;;;10.10;99.90;;;;;;6184737;23;20017;-40
2023/06/06 04:07:40;;;;;;;19.13;12.88;;;10.20;99.90;;;;;;6185417;23;20421;-40
2023/06/06 04:10:06;;;;;;;15.90;12.55;;;10.20;99.90;;;;;;6186165;23;20384;-41
2023/06/06 04:12:32;;;;;;;18.08;12.40;;;10.30;99.90;;;;;;6210795;23;20017;-40
2023/06/06 04:14:58;;;;;;;20.05;12.27;;;10.30;99.90;;;;;;6211165;23;20013;-40
2023/06/06 04:17:24;;;;;;;15.68;11.88;;;10.30;99.90;;;;;;6209742;23;20360;-39
2023/06/06 04:19:51;;;;;;;14.90;10.50;;;10.40;99.90;;;;;;6184298;23;20016;-40
2023/06/06 04:22:18;;;;;;;16.05;10.60;;;10.40;99.90;;;;;;6207662;23;20028;-40
2023/06/06 04:24:44;;;;;;;17.73;10.15;;;10.50;99.90;;;;;;6207637;23;20032;-41
2023/06/06 04:27:09;;;;;;;13.93;9.85;;;10.60;99.90;;;;;;6209122;23;20430;-41
2023/06/06 04:29:36;;;;;;;19.92;11.07;;;10.60;99.90;;;;;;6184544;23;20394;-41
2023/06/06 04:32:02;;;;;;;16.98;11.50;;;10.60;99.90;;;;;;6183306;23;20016;-43
2023/06/06 04:34:31;;;;;;;14.77;10.63;;;11.00;99.90;;;;;;6210170;23;20030;-42
2023/06/06 04:37:04;;;;;;;18.60;10.88;;;12.30;99.90;;;;;;6211985;23;20020;-39
2023/06/06 04:39:38;;;;;;;15.25;9.80;;;12.40;99.90;;;;;;6212372;23;20067;-39
2023/06/06 04:42:05;;;;;;;18.20;10.77;;;12.80;99.90;;;;;;6212487;23;20088;-40
2023/06/06 04:44:34;;;;;;;16.70;10.23;;;13.60;99.90;;;;;;6209927;23;20068;-40
2023/06/06 04:47:01;;;;;;;13.13;9.63;;;14.10;99.90;;;;;;6209711;23;20017;-43
2023/06/06 04:49:27;;;;;;;17.92;10.50;;;14.30;99.90;;;;;;6210720;23;20095;-41
2023/06/06 04:51:55;;;;;;;15.30;9.65;;;14.70;99.90;;;;;;6210447;23;20352;-41
2023/06/06 04:54:23;;;;;;;14.57;8.45;;;14.70;99.90;;;;;;6186652;23;20106;-39
2023/06/06 04:56:51;;;;;;;11.77;7.00;;;15.20;99.90;;;;;;6213385;23;20009;-41
2023/06/06 04:59:17;;;;;;;;;;;14.90;99.90;;;;;;6215900;23;20486;-40
2023/06/06 05:01:46;;;;;;;12.27;7.47;;;15.40;99.90;;;;;;6214732;23;19915;-40
2023/06/06 05:04:12;;;;;;;10.90;7.57;;;15.30;99.90;;;;;;6213170;23;20369;-39
2023/06/06 05:06:39;;;;;;;13.55;7.18;;;15.30;99.90;;;;;;6213543;23;20084;-40
2023/06/06 05:09:04;;;;;;;10.43;5.75;;;15.60;99.90;;;;;;6214271;23;20425;-40
2023/06/06 05:11:30;;;;;;;12.95;7.47;;;15.30;99.90;;;;;;6213581;23;20013;-41
2023/06/06 05:13:56;;;;;;;8.75;6.78;;;15.70;99.90;;;;;;6213597;23;20104;-39
2023/06/06 05:16:22;;;;;;;13.52;8.05;;;15.90;99.90;;;;;;6213419;23;20021;-40
2023/06/06 05:18:47;;;;;;;11.68;7.13;;;16.20;99.90;;;;;;6213197;23;20012;-40
2023/06/06 05:21:14;;;;;;;12.32;6.47;;;16.90;99.90;;;;;;6213214;23;20016;-40
2023/06/06 05:23:40;;;;;;;12.27;7.18;;;17.00;99.90;;;;;;6209322;23;20009;-42
2023/06/06 05:26:06;;;;;;;10.93;6.22;;;16.80;99.90;;;;;;6209257;23;20036;-42
2023/06/06 05:28:31;;;;;;;10.63;6.50;;;17.10;99.90;;;;;;6185232;23;20337;-40
2023/06/06 05:30:57;;;;;;;9.45;6.32;;;17.20;99.90;;;;;;6210096;23;20016;-40
2023/06/06 05:33:26;;;;;;;12.25;6.43;;;17.00;99.90;;;;;;6208246;23;20020;-41
2023/06/06 05:35:55;;;;;;;8.05;5.60;;;17.40;99.90;;;;;;6211703;23;20013;-40
2023/06/06 05:38:21;;;;;;;8.73;6.18;;;17.20;99.90;;;;;;6211566;23;20290;-42
2023/06/06 05:40:47;;;;;;;9.23;6.10;;;17.20;99.90;;;;;;6184677;23;20017;-40
2023/06/06 05:43:14;;;;;;;7.03;4.30;;;17.90;99.90;;;;;;6159696;23;20265;-43
2023/06/06 05:45:39;;;;;;;10.77;6.50;;;17.70;99.90;;;;;;6210979;23;20024;-42
2023/06/06 05:48:05;;;;;;;16.05;10.25;;;17.50;99.90;;;;;;6211084;23;20016;-41
2023/06/06 05:50:31;;;;;;;8.68;6.38;;;17.90;99.90;;;;;;6210749;23;20028;-40
2023/06/06 05:52:57;;;;;;;9.77;6.97;;;18.10;99.90;;;;;;6211087;23;20104;-44
2023/06/06 05:55:41;;;;;;;7.68;4.45;;;18.00;99.90;;;;;;6211223;23;20071;-40
2023/06/06 05:58:06;;;;;;;11.55;5.43;;;17.60;99.90;;;;;;6214239;23;20119;-41
2023/06/06 06:00:34;;;;;;;10.10;5.28;;;17.90;99.90;;;;;;6214114;23;20050;-42
2023/06/06 06:03:01;;;;;;;6.28;4.30;;;18.10;99.90;;;;;;6212587;23;20047;-42
2023/06/06 06:05:28;;;;;;;7.75;5.10;;;18.20;99.90;;;;;;6211795;23;20017;-40
2023/06/06 06:07:55;;;;;;;9.73;5.25;;;18.10;99.90;;;;;;6211307;23;20012;-41
2023/06/06 06:10:21;;;;;;;7.45;4.57;;;18.20;99.90;;;;;;6211188;23;20024;-40
2023/06/06 06:12:47;;;;;;;10.45;5.50;;;18.00;99.90;;;;;;6183933;23;20029;-42
2023/06/06 06:15:12;;;;;;;9.80;5.50;;;18.20;99.90;;;;;;6182508;23;20019;-40
2023/06/06 06:17:38;;;;;;;6.45;4.70;;;18.40;99.90;;;;;;6182423;23;20017;-40
2023/06/06 06:20:08;;;;;;;7.18;4.30;;;18.80;99.90;;;;;;6157491;23;20008;-41
2023/06/06 06:22:37;;;;;;;10.45;5.43;;;18.50;99.90;;;;;;6182122;23;20032;-42
2023/06/06 06:25:04;;;;;;;9.75;4.93;;;18.60;99.90;;;;;;6182911;23;20091;-41
2023/06/06 06:27:33;;;;;;;7.55;4.28;;;18.60;99.90;;;;;;6183682;23;20043;-41
2023/06/06 06:30:01;;;;;;;8.85;4.75;;;18.70;99.90;;;;;;6182001;23;20066;-40
2023/06/06 06:32:27;;;;;;;11.13;5.35;;;19.40;99.90;;;;;;6182149;23;20016;-40
2023/06/06 06:34:56;;;;;;;7.78;4.65;;;19.80;99.90;;;;;;6210316;23;20021;-40
2023/06/06 06:37:21;;;;;;;9.65;4.82;;;19.50;99.90;;;;;;6210399;23;20260;-40
2023/06/06 06:39:48;;;;;;;10.50;5.10;;;19.50;99.90;;;;;;6207674;23;20013;-40
2023/06/06 06:42:14;;;;;;;9.90;4.57;;;19.60;99.90;;;;;;6208514;23;20016;-42
2023/06/06 06:44:40;;;;;;;10.98;5.15;;;19.80;99.90;;;;;;6155284;23;20027;-41
2023/06/06 06:47:06;;;;;;;10.47;5.00;;;19.70;99.90;;;;;;6181499;23;20021;-41
2023/06/06 06:49:32;;;;;;;9.93;5.28;;;19.80;99.90;;;;;;6206735;23;20044;-41
2023/06/06 06:52:00;;;;;;;8.80;4.55;;;20.50;99.90;;;;;;6208898;23;20020;-41
2023/06/06 06:54:26;;;;;;;18.83;4.82;;;20.10;99.90;;;;;;6183511;23;20017;-41
2023/06/06 06:56:53;;;;;;;7.60;4.35;;;20.20;99.90;;;;;;6158106;23;20017;-40
2023/06/06 06:59:22;;;;;;;8.48;5.00;;;20.00;99.90;;;;;;6212166;23;20487;-40
2023/06/06 07:01:49;;;;;;;9.73;5.20;;;20.20;99.90;;;;;;6159396;23;20013;-41
2023/06/06 07:04:18;;;;;;;9.33;5.17;;;20.30;99.90;;;;;;6211128;23;20334;-42
2023/06/06 07:06:44;;;;;;;10.15;5.07;;;20.30;99.90;;;;;;6208327;23;20323;-41
2023/06/06 07:09:11;;;;;;;9.15;4.88;;;20.70;99.90;;;;;;6213135;23;20091;-40
2023/06/06 07:11:36;;;;;;;8.25;4.45;;;20.60;99.90;;;;;;6186654;23;20021;-41
2023/06/06 07:14:02;;;;;;;9.27;5.13;;;20.90;99.90;;;;;;6186981;23;20455;-42
2023/06/06 07:16:27;;;;;;;7.13;4.25;;;20.40;99.90;;;;;;6214993;23;20017;-41
2023/06/06 07:18:53;;;;;;;9.55;4.45;;;19.70;99.90;;;;;;6214213;23;20024;-40
2023/06/06 07:21:20;;;;;;;10.82;4.63;;;19.40;99.90;;;;;;6187405;23;20044;-41
2023/06/06 07:23:47;;;;;;;9.10;4.85;;;19.60;99.90;;;;;;6213509;23;20015;-42
2023/06/06 07:26:16;;;;;;;9.65;4.82;;;19.60;99.90;;;;;;6211046;23;20344;-41
2023/06/06 07:28:43;;;;;;;8.88;5.13;;;19.70;99.90;;;;;;6210200;23;20028;-41
2023/06/06 07:31:09;;;;;;;9.17;5.00;;;19.60;99.90;;;;;;6212707;23;20348;-40
2023/06/06 07:33:35;;;;;;;8.35;4.40;;;19.90;99.90;;;;;;6211065;23;20047;-42
2023/06/06 07:36:00;;;;;;;8.45;4.40;;;19.80;99.90;;;;;;6212746;23;20528;-42
2023/06/06 07:38:26;;;;;;;9.18;4.93;;;19.60;99.90;;;;;;6214131;23;20044;-42
2023/06/06 07:40:52;;;;;;;8.98;4.40;;;19.40;99.90;;;;;;6213526;23;20009;-41
2023/06/06 07:43:17;;;;;;;9.75;4.72;;;19.10;99.90;;;;;;6213414;23;20020;-43
2023/06/06 07:45:43;;;;;;;8.05;5.07;;;18.80;99.90;;;;;;6212583;23;20012;-41
2023/06/06 07:48:12;;;;;;;11.18;5.10;;;18.10;99.90;;;;;;6187128;23;20413;-41
2023/06/06 07:50:38;;;;;;;11.57;4.90;;;18.40;99.90;;;;;;6212484;23;20445;-44
2023/06/06 07:53:03;;;;;;;8.75;5.05;;;18.00;99.90;;;;;;6214401;23;20020;-41
2023/06/06 07:55:30;;;;;;;7.28;4.45;;;18.00;99.90;;;;;;6213281;23;20491;-43
2023/06/06 07:57:57;;;;;;;10.13;5.00;;;18.20;99.90;;;;;;6214071;23;20410;-42
2023/06/06 08:00:23;;;;;;;6.80;4.75;;;18.10;99.90;;;;;;6187527;23;20385;-41
2023/06/06 08:02:49;;;;;;;9.55;5.35;;;18.00;99.90;;;;;;6213303;23;20012;-41
2023/06/06 08:05:17;;;;;;;9.13;4.82;;;18.20;99.90;;;;;;6212619;23;20024;-43
2023/06/06 08:07:44;;;;;;;11.00;5.65;;;18.10;99.90;;;;;;6213852;23;20092;-42
2023/06/06 08:10:10;;;;;;;8.55;4.85;;;18.20;99.90;;;;;;6210129;23;20019;-41
2023/06/06 08:12:36;;;;;;;9.27;5.45;;;18.00;99.90;;;;;;6184882;23;20009;-41
2023/06/06 08:15:03;;;;;;;9.07;5.85;;;18.30;99.90;;;;;;6211260;23;20020;-42
2023/06/06 08:17:29;;;;;;;10.02;5.32;;;18.40;99.90;;;;;;6210321;23;20341;-41
2023/06/06 08:19:55;;;;;;;10.32;5.97;;;18.60;99.90;;;;;;6210710;23;20009;-41
2023/06/06 08:22:20;;;;;;;10.00;5.50;;;18.60;99.90;;;;;;6211686;23;20408;-42
2023/06/06 08:24:46;;;;;;;9.88;6.15;;;18.70;99.90;;;;;;6211581;23;20016;-42
2023/06/06 08:27:11;;;;;;;9.85;5.57;;;18.70;99.90;;;;;;6211558;23;20016;-41
2023/06/06 08:29:37;;;;;;;9.10;5.60;;;18.90;99.90;;;;;;6210202;23;20345;-41
2023/06/06 08:32:04;;;;;;;9.73;6.28;;;18.60;99.90;;;;;;6185772;23;20024;-40
2023/06/06 08:34:30;;;;;;;9.98;7.28;;;18.70;99.90;;;;;;6211745;23;20513;-41
2023/06/06 08:36:56;;;;;;;13.10;6.78;;;18.80;99.90;;;;;;6214296;23;20056;-40
2023/06/06 08:39:22;;;;;;;10.77;6.65;;;19.10;99.90;;;;;;6212796;23;20012;-42
2023/06/06 08:41:52;;;;;;;9.70;7.00;;;19.00;99.90;;;;;;6213043;23;20013;-40
2023/06/06 08:44:20;;;;;;;10.27;6.30;;;19.00;99.90;;;;;;6213843;23;20066;-41
2023/06/06 08:46:49;;;;;;;8.40;6.57;;;19.00;99.90;;;;;;6214527;23;20393;-42
2023/06/06 08:49:18;;;;;;;10.57;6.75;;;19.20;99.90;;;;;;6212811;23;20091;-41
2023/06/06 08:51:46;;;;;;;9.07;6.00;;;19.50;99.90;;;;;;6213234;23;20477;-44
2023/06/06 08:54:12;;;;;;;9.07;5.50;;;19.40;99.90;;;;;;6213722;23;20047;-42
2023/06/06 08:56:41;;;;;;;9.88;6.90;;;19.50;99.90;;;;;;6211915;23;20024;-40
2023/06/06 08:59:07;;;;;;;13.25;7.25;;;19.40;99.90;;;;;;6160024;23;20104;-40
2023/06/06 09:01:35;;;;;;;9.45;6.53;;;19.60;99.90;;;;;;6211412;23;20048;-39
2023/06/06 09:04:01;;;;;;;;;;;19.70;99.90;;;;;;6214628;23;20008;-40
2023/06/06 09:06:27;;;;;;;10.70;7.32;;;19.70;99.90;;;;;;6187859;23;20221;-39
2023/06/06 09:08:55;;;;;;;11.23;6.43;;;19.80;99.90;;;;;;6188700;23;20465;-39
2023/06/06 09:11:21;;;;;;;10.65;6.15;;;19.70;99.90;;;;;;6189038;23;20027;-39
2023/06/06 09:13:46;;;;;;;10.13;6.05;;;19.60;99.90;;;;;;6217664;23;20484;-39
2023/06/06 09:16:15;;;;;;;11.88;7.18;;;19.60;99.90;;;;;;6217748;23;20044;-41
2023/06/06 09:18:42;;;;;;;11.25;6.25;;;19.70;99.90;;;;;;6217284;23;20337;-39
2023/06/06 09:21:08;;;;;;;9.65;6.35;;;19.70;99.90;;;;;;6165115;23;20016;-41
2023/06/06 09:23:34;;;;;;;11.55;6.35;;;20.00;99.90;;;;;;6217888;23;20016;-42
2023/06/06 09:26:00;;;;;;;10.32;5.55;;;19.90;99.90;;;;;;6217972;23;20333;-39
2023/06/06 09:28:36;;;;;;;10.20;5.93;;;20.10;99.90;;;;;;6218163;23;20078;-41
2023/06/06 09:31:22;;;;;;;10.02;6.00;;;19.90;99.90;;;;;;6216970;23;20078;-39
2023/06/06 09:33:49;;;;;;;9.63;6.45;;;20.00;99.90;;;;;;6217010;23;20019;-40
2023/06/06 09:36:14;;;;;;;9.73;6.15;;;20.00;99.90;;;;;;6217744;23;20012;-40
2023/06/06 09:38:40;;;;;;;8.95;6.50;;;20.00;99.90;;;;;;6217603;23;20441;-40
2023/06/06 09:41:07;;;;;;;8.60;5.80;;;20.20;99.90;;;;;;6217668;23;20036;-39
2023/06/06 09:43:37;;;;;;;7.30;5.68;;;20.30;99.90;;;;;;6215768;23;20027;-40
2023/06/06 09:46:05;;;;;;;8.10;6.05;;;20.50;99.90;;;;;;6217032;23;20020;-39
2023/06/06 09:48:31;;;;;;;10.25;5.82;;;20.50;99.90;;;;;;6216730;23;20068;-39
2023/06/06 09:50:58;;;;;;;10.05;5.30;;;20.70;99.90;;;;;;6217951;23;20017;-40
2023/06/06 09:53:27;;;;;;;7.22;5.18;;;20.70;99.90;;;;;;6218147;23;20063;-44
2023/06/06 09:55:55;;;;;;;10.75;4.97;;;20.70;99.90;;;;;;6190112;23;20035;-39
2023/06/06 09:58:22;;;;;;;6.90;4.60;;;21.00;99.90;;;;;;6194624;23;20128;-39
2023/06/06 10:00:48;;;;;;;5.93;4.43;;;21.30;99.90;;;;;;6217534;23;20017;-42
2023/06/06 10:03:18;;;;;;;9.38;5.47;;;21.30;99.90;;;;;;6217234;23;20020;-40
2023/06/06 10:05:48;;;;;;;11.00;5.45;;;21.20;99.90;;;;;;6188142;23;20070;-39
2023/06/06 10:08:17;;;;;;;9.18;5.13;;;21.10;99.90;;;;;;6215928;23;20024;-39
2023/06/06 10:10:48;;;;;;;7.47;4.65;;;21.40;99.90;;;;;;6187837;23;20012;-39
2023/06/06 10:13:15;;;;;;;9.82;5.50;;;21.40;99.90;;;;;;6215913;23;20342;-39
2023/06/06 10:15:41;;;;;;;;;;;21.30;99.90;;;;;;6217064;23;20012;-42
2023/06/06 10:18:09;;;;;;;8.25;4.57;;;21.40;99.90;;;;;;6215874;23;19916;-40
2023/06/06 10:20:34;;;;;;;;;;;21.40;99.90;;;;;;6163453;23;20092;-42
2023/06/06 10:23:04;;;;;;;7.93;5.57;;;21.40;99.90;;;;;;6212303;23;19955;-39
2023/06/06 10:25:30;;;;;;;8.27;4.85;;;21.50;99.90;;;;;;6209882;23;20364;-42
2023/06/06 10:28:13;;;;;;;9.88;4.95;;;21.50;99.90;;;;;;6160228;23;20143;-39
2023/06/06 10:30:41;;;;;;;7.65;4.65;;;21.60;99.90;;;;;;6210936;23;20096;-39
2023/06/06 10:33:28;;;;;;;6.70;4.47;;;21.50;99.90;;;;;;6184463;23;20025;-39
2023/06/06 10:36:02;;;;;;;7.78;4.40;;;21.70;99.90;;;;;;6212143;23;20051;-41
2023/06/06 10:38:28;;;;;;;7.15;4.90;;;21.90;99.90;;;;;;6213050;23;20017;-42
2023/06/06 10:40:55;;;;;;;7.68;4.82;;;21.70;99.90;;;;;;6211649;23;20417;-42
2023/06/06 10:43:46;;;;;;;7.80;4.10;;;21.60;99.90;;;;;;6211093;23;20031;-42
2023/06/06 10:46:12;;;;;;;7.43;4.80;;;21.40;99.90;;;;;;6184379;23;20025;-42
2023/06/06 10:48:45;;;;;;;9.80;4.97;;;21.60;99.90;;;;;;6211720;23;20072;-40
2023/06/06 10:51:23;;;;;;;8.07;4.38;;;21.40;99.90;;;;;;6212007;23;20469;-41
2023/06/06 10:54:08;;;;;;;;;;;21.80;99.90;;;;;;6212769;23;20091;-40
2023/06/06 10:56:34;;;;;;;6.68;4.55;;;22.00;99.90;;;;;;6211048;23;20324;-40
2023/06/06 10:59:00;;;;;;;7.10;4.88;;;22.20;99.90;;;;;;6213150;23;20382;-41
2023/06/06 11:01:27;;;;;;;8.32;4.57;;;22.10;99.90;;;;;;6211639;23;20021;-41
2023/06/06 11:03:53;;;;;;;;;;;22.20;99.90;;;;;;6185597;23;20029;-40
2023/06/06 11:06:21;;;;;;;8.38;4.82;;;21.90;99.90;;;;;;6211825;23;20038;-40
2023/06/06 11:08:56;;;;;;;9.02;4.65;;;22.20;99.90;;;;;;6212478;23;20383;-40
2023/06/06 11:11:27;;;;;;;8.93;5.55;;;22.20;99.90;;;;;;6210898;23;20034;-40
2023/06/06 11:13:57;;;;;;;7.40;4.53;;;22.30;99.90;;;;;;6211297;23;20091;-40
2023/06/06 11:16:38;;;;;;;6.57;4.82;;;22.30;99.90;;;;;;6211432;23;20046;-40
2023/06/06 11:19:15;;;;;;;8.60;4.32;;;22.40;99.90;;;;;;6184126;23;20043;-41
2023/06/06 11:21:42;;;;;;;10.13;4.43;;;22.30;99.90;;;;;;6212378;23;20024;-40
2023/06/06 11:24:09;;;;;;;7.53;4.85;;;22.30;99.90;;;;;;6213223;23;20055;-42
2023/06/06 11:26:38;;;;;;;13.02;5.10;;;22.40;99.90;;;;;;6213814;23;20067;-41
2023/06/06 11:29:04;;;;;;;9.13;4.25;;;22.40;99.90;;;;;;6213325;23;20021;-40
2023/06/06 11:31:32;;;;;;;4.72;4.28;;;22.40;99.90;;;;;;6213972;23;20023;-40
2023/06/06 11:34:12;;;;;;;6.53;5.05;;;22.40;99.90;;;;;;6212513;23;20463;-46
2023/06/06 11:36:40;;;;;;;6.90;4.35;;;22.50;99.90;;;;;;6214461;23;20115;-45
2023/06/06 11:39:07;;;;;;;6.60;4.40;;;22.70;99.90;;;;;;6213563;23;20012;-41
2023/06/06 11:41:39;;;;;;;;;;;22.60;99.90;;;;;;6214826;23;20026;-40
2023/06/06 11:44:05;;;;;;;7.22;4.60;;;22.60;99.90;;;;;;6212982;23;19916;-41
2023/06/06 11:46:52;;;;;;;9.95;5.13;;;22.80;99.90;;;;;;6213760;23;20016;-42
2023/06/06 11:49:20;;;;;;;8.90;5.00;;;22.70;99.90;;;;;;6212951;23;20012;-41
2023/06/06 11:51:58;;;;;;;;;;;22.90;99.90;;;;;;6213305;23;20058;-42
2023/06/06 11:54:33;;;;;;;6.82;4.63;;;23.00;99.90;;;;;;6211421;23;20360;-40
2023/06/06 11:57:02;;;;;;;8.77;4.68;;;23.20;99.90;;;;;;6212933;23;20463;-41
2023/06/06 11:59:29;;;;;;;9.25;4.40;;;22.90;99.90;;;;;;6215672;23;20089;-41
2023/06/06 12:01:56;;;;;;;9.87;4.73;;;22.80;99.90;;;;;;6213866;23;20092;-43
2023/06/06 12:04:23;;;;;;;8.68;4.93;;;22.90;99.90;;;;;;6214224;23;20020;-42
2023/06/06 12:06:54;;;;;;;11.73;5.07;;;23.10;99.90;;;;;;6214047;23;20013;-44
2023/06/06 12:09:23;;;;;;;7.25;4.07;;;23.10;99.90;;;;;;6213858;23;20444;-45
2023/06/06 12:11:59;;;;;;;7.57;4.60;;;23.20;99.90;;;;;;6213912;23;20028;-42
2023/06/06 12:14:26;;;;;;;7.50;4.95;;;23.30;99.90;;;;;;6186940;23;20366;-43
2023/06/06 12:16:53;;;;;;;6.55;4.20;;;23.30;99.90;;;;;;6214007;23;20440;-44
2023/06/06 12:19:19;;;;;;;8.38;4.53;;;22.90;99.90;;;;;;6213182;23;20012;-42
2023/06/06 12:21:49;;;;;;;8.30;4.80;;;23.10;99.90;;;;;;6214034;23;20373;-44
2023/06/06 12:24:22;;;;;;;9.27;4.43;;;22.90;99.90;;;;;;6213483;23;20040;-42
2023/06/06 12:26:59;;;;;;;5.88;4.00;;;23.30;99.90;;;;;;6211529;23;20021;-47
2023/06/06 12:29:26;;;;;;;8.00;4.72;;;23.40;99.90;;;;;;6212115;23;20024;-45
2023/06/06 12:32:14;;;;;;;5.68;3.90;;;23.40;99.90;;;;;;6213323;23;20013;-42
2023/06/06 12:34:53;;;;;;;7.30;4.28;;;23.60;99.90;;;;;;6213649;23;20017;-43
2023/06/06 12:37:19;;;;;;;6.03;3.97;;;23.30;99.90;;;;;;6160664;23;20096;-42
2023/06/06 12:39:46;;;;;;;8.02;4.40;;;23.20;99.90;;;;;;6185998;23;20024;-43
2023/06/06 12:42:16;;;;;;;6.68;3.95;;;23.40;99.90;;;;;;6212570;23;20082;-42
2023/06/06 12:44:42;;;;;;;9.75;4.80;;;23.40;99.90;;;;;;6213114;23;20017;-42
2023/06/06 12:47:11;;;;;;;11.10;4.30;;;23.40;99.90;;;;;;6212689;23;20071;-42